Time;durP1;ratioP1;P1;durP2;ratioP2;P2;SDS_P1;SDS_P2;PMS_P1;PMS_P2;Temp;Humidity;BMP_temperature;BMP_pressure;BME280_temperature;BME280_humidity;BME280_pressure;Samples;Min_cycle;Max_cycle;Signal;HPM_P1;HPM_P2
2022/05/15 00:02:03;;;;;;;16.35;4.43;;;8.90;99.90;;;;;;5069808;28;20048;-80
2022/05/15 00:04:28;;;;;;;15.82;4.18;;;8.90;99.90;;;;;;5069333;28;20093;-80
2022/05/15 00:06:54;;;;;;;16.20;4.43;;;9.00;99.90;;;;;;5069370;28;20044;-80
2022/05/15 00:09:20;;;;;;;11.85;3.90;;;8.90;99.90;;;;;;5069076;28;20910;-80
2022/05/15 00:11:46;;;;;;;18.30;4.22;;;8.90;99.90;;;;;;5086737;28;20032;-80
2022/05/15 00:14:13;;;;;;;10.48;3.08;;;8.90;99.90;;;;;;5068601;28;20101;-81
2022/05/15 00:16:38;;;;;;;16.95;3.92;;;9.00;99.90;;;;;;5071695;28;20242;-80
2022/05/15 00:19:04;;;;;;;9.80;3.60;;;8.80;99.90;;;;;;5090344;28;20155;-79
2022/05/15 00:21:30;;;;;;;13.77;5.10;;;8.80;99.90;;;;;;5073562;28;20407;-80
2022/05/15 00:23:56;;;;;;;16.75;5.47;;;8.80;99.90;;;;;;5091712;28;20071;-80
2022/05/15 00:26:22;;;;;;;21.92;6.72;;;8.80;99.90;;;;;;5072549;28;20485;-81
2022/05/15 00:28:47;;;;;;;22.75;7.38;;;8.80;99.90;;;;;;5073124;28;20052;-80
2022/05/15 00:31:13;;;;;;;19.10;7.55;;;8.80;99.90;;;;;;5090910;28;20097;-80
2022/05/15 00:33:39;;;;;;;25.63;8.45;;;8.80;99.90;;;;;;5073031;28;20056;-80
2022/05/15 00:36:05;;;;;;;28.90;8.82;;;8.70;99.90;;;;;;5072464;28;20085;-80
2022/05/15 00:38:31;;;;;;;21.77;7.93;;;8.70;99.90;;;;;;5073809;28;20487;-80
2022/05/15 00:40:57;;;;;;;23.48;7.88;;;8.70;99.90;;;;;;5072917;28;20479;-80
2022/05/15 00:43:44;;;;;;;18.02;6.18;;;8.80;99.90;;;;;;5072144;28;20118;-80
2022/05/15 00:46:14;;;;;;;20.05;7.80;;;8.70;99.90;;;;;;5072979;28;20403;-80
2022/05/15 00:48:40;;;;;;;20.95;7.13;;;8.70;99.90;;;;;;5072217;28;20140;-80
2022/05/15 00:51:12;;;;;;;20.05;7.32;;;8.70;99.90;;;;;;5072425;28;20094;-80
2022/05/15 00:53:40;;;;;;;22.87;7.37;;;8.80;99.90;;;;;;5072450;28;20450;-80
2022/05/15 00:56:07;;;;;;;16.67;6.60;;;8.70;99.90;;;;;;5071974;28;20683;-80
2022/05/15 00:58:37;;;;;;;27.25;8.50;;;8.60;99.90;;;;;;5042502;28;20084;-80
2022/05/15 01:01:04;;;;;;;19.88;7.18;;;8.60;99.90;;;;;;5048345;28;20049;-80
2022/05/15 01:03:31;;;;;;;21.45;6.97;;;8.60;99.90;;;;;;5049470;28;20102;-80
2022/05/15 01:05:58;;;;;;;15.65;6.57;;;8.50;99.90;;;;;;5049326;28;20068;-80
2022/05/15 01:08:28;;;;;;;20.27;7.32;;;8.70;99.90;;;;;;5048932;28;20053;-80
2022/05/15 01:10:58;;;;;;;28.25;9.07;;;8.50;99.90;;;;;;5049904;28;20044;-80
2022/05/15 01:13:27;;;;;;;20.75;8.85;;;8.50;99.90;;;;;;5050363;28;20055;-80
2022/05/15 01:15:53;;;;;;;27.75;9.75;;;8.50;99.90;;;;;;5049172;28;20099;-80
2022/05/15 01:18:22;;;;;;;26.65;8.25;;;8.40;99.90;;;;;;5049121;28;20037;-80
2022/05/15 01:20:52;;;;;;;31.15;8.82;;;8.40;99.90;;;;;;5049302;28;20102;-80
2022/05/15 01:23:17;;;;;;;19.25;7.97;;;8.90;99.90;;;;;;5048642;28;20678;-81
2022/05/15 01:25:43;;;;;;;11.30;4.88;;;8.60;99.90;;;;;;5049696;28;20045;-80
2022/05/15 01:28:16;;;;;;;25.05;8.35;;;8.70;99.90;;;;;;5047676;28;20597;-80
2022/05/15 01:30:46;;;;;;;27.58;10.05;;;8.30;99.90;;;;;;5061195;28;20052;-81
2022/05/15 01:33:11;;;;;;;28.27;9.85;;;8.30;99.90;;;;;;5048254;28;20060;-81
2022/05/15 01:35:37;;;;;;;15.50;6.63;;;8.30;99.90;;;;;;5048252;28;20045;-80
2022/05/15 01:38:05;;;;;;;27.20;7.68;;;8.20;99.90;;;;;;5047567;28;20056;-80
2022/05/15 01:40:31;;;;;;;17.20;7.70;;;8.20;99.90;;;;;;5048725;28;20044;-81
2022/05/15 01:42:59;;;;;;;21.17;8.02;;;8.20;99.90;;;;;;5048765;28;20055;-80
2022/05/15 01:45:24;;;;;;;18.35;6.95;;;8.50;99.90;;;;;;5047614;28;20365;-81
2022/05/15 01:47:50;;;;;;;15.23;6.10;;;8.00;99.90;;;;;;5048669;28;20045;-80
2022/05/15 01:50:16;;;;;;;17.65;7.25;;;8.10;99.90;;;;;;5046969;28;20041;-80
2022/05/15 01:52:43;;;;;;;23.60;8.38;;;7.90;99.90;;;;;;5031662;28;20059;-80
2022/05/15 01:55:10;;;;;;;12.52;4.93;;;8.10;99.90;;;;;;5049738;28;20491;-80
2022/05/15 01:57:36;;;;;;;11.07;4.75;;;7.80;99.90;;;;;;5052460;28;20045;-80
2022/05/15 02:00:06;;;;;;;18.23;6.18;;;7.80;99.90;;;;;;5071815;28;20052;-81
2022/05/15 02:02:31;;;;;;;12.02;3.60;;;7.70;99.90;;;;;;5090052;28;20043;-80
2022/05/15 02:04:57;;;;;;;12.65;4.32;;;7.70;99.90;;;;;;5070849;28;20056;-81
2022/05/15 02:07:23;;;;;;;16.20;4.70;;;8.00;99.90;;;;;;5089455;28;20073;-81
2022/05/15 02:09:48;;;;;;;14.75;4.10;;;7.70;99.90;;;;;;5071803;28;20056;-80
2022/05/15 02:12:14;;;;;;;13.95;4.75;;;7.60;99.90;;;;;;5070458;28;20668;-80
2022/05/15 02:14:40;;;;;;;14.20;4.78;;;7.60;99.90;;;;;;5071020;28;20114;-80
2022/05/15 02:17:06;;;;;;;9.13;2.67;;;7.50;99.90;;;;;;5071108;28;20048;-79
2022/05/15 02:19:31;;;;;;;12.55;4.60;;;7.50;99.90;;;;;;5070281;28;20051;-80
2022/05/15 02:21:57;;;;;;;16.50;4.40;;;7.50;99.90;;;;;;5071071;28;20044;-79
2022/05/15 02:24:23;;;;;;;21.70;6.22;;;7.50;99.90;;;;;;5070798;28;20052;-80
2022/05/15 02:26:48;;;;;;;18.30;5.55;;;7.50;99.90;;;;;;5070370;28;20052;-80
2022/05/15 02:29:15;;;;;;;22.42;6.22;;;7.40;99.90;;;;;;5089305;28;20047;-80
2022/05/15 02:31:40;;;;;;;14.10;4.47;;;7.50;99.90;;;;;;5071590;28;20056;-80
2022/05/15 02:34:06;;;;;;;25.23;7.25;;;7.40;99.90;;;;;;5069840;28;20044;-80
2022/05/15 02:36:31;;;;;;;19.83;6.40;;;8.00;99.90;;;;;;5089599;28;20044;-80
2022/05/15 02:38:57;;;;;;;14.98;4.43;;;7.40;99.90;;;;;;5070278;28;20048;-80
2022/05/15 02:41:23;;;;;;;15.82;4.45;;;7.40;99.90;;;;;;5069796;28;20048;-80
2022/05/15 02:43:48;;;;;;;5.50;2.40;;;7.50;99.90;;;;;;5089158;28;20050;-80
2022/05/15 02:46:14;;;;;;;5.63;2.10;;;7.70;99.90;;;;;;5070346;28;20060;-80
2022/05/15 02:51:25;;;;;;;4.18;1.95;;;7.10;99.90;;;;;;5070189;28;20139;-80
2022/05/15 02:53:50;;;;;;;5.22;1.75;;;7.30;99.90;;;;;;5069815;28;20917;-80
2022/05/15 02:56:20;;;;;;;3.15;1.20;;;7.00;99.90;;;;;;5070219;28;20486;-80
2022/05/15 02:58:46;;;;;;;4.60;1.55;;;7.00;99.90;;;;;;5052986;28;20074;-80
2022/05/15 03:01:13;;;;;;;2.22;0.50;;;6.90;99.90;;;;;;5069423;28;20459;-80
2022/05/15 03:03:39;;;;;;;5.22;0.73;;;6.90;99.90;;;;;;5070923;28;20044;-80
2022/05/15 03:06:06;;;;;;;5.63;1.50;;;6.80;99.90;;;;;;5069347;28;20044;-80
2022/05/15 03:08:36;;;;;;;3.80;1.75;;;6.80;99.90;;;;;;5069899;28;20805;-80
2022/05/15 03:11:01;;;;;;;7.35;2.55;;;6.70;99.90;;;;;;5053193;28;20415;-80
2022/05/15 03:13:27;;;;;;;9.48;3.22;;;6.80;99.90;;;;;;5069755;28;20040;-80
2022/05/15 03:15:53;;;;;;;8.23;3.72;;;6.70;99.90;;;;;;5088097;28;20044;-80
2022/05/15 03:18:19;;;;;;;10.88;4.07;;;6.70;99.90;;;;;;5070090;28;20074;-80
2022/05/15 03:20:45;;;;;;;10.10;4.05;;;6.60;99.90;;;;;;5069828;28;20450;-80
2022/05/15 03:23:11;;;;;;;12.55;4.53;;;6.70;99.90;;;;;;5068911;28;20063;-80
2022/05/15 03:25:37;;;;;;;14.70;4.63;;;6.90;99.90;;;;;;5087240;28;20479;-80
2022/05/15 03:28:09;;;;;;;11.10;3.90;;;6.70;99.90;;;;;;5085932;28;20050;-80
2022/05/15 03:30:35;;;;;;;23.30;6.22;;;6.70;99.90;;;;;;5069576;28;20629;-80
2022/05/15 03:33:01;;;;;;;17.95;5.18;;;6.70;99.90;;;;;;5069201;28;20051;-80
2022/05/15 03:35:27;;;;;;;19.90;5.30;;;7.00;99.90;;;;;;5069250;28;20048;-80
2022/05/15 03:37:53;;;;;;;13.80;4.15;;;6.80;99.90;;;;;;5085936;28;20051;-80
2022/05/15 03:40:18;;;;;;;18.83;5.57;;;6.90;99.90;;;;;;5069451;28;20044;-79
2022/05/15 03:42:44;;;;;;;15.25;4.63;;;6.90;99.90;;;;;;5085580;28;20696;-80
2022/05/15 03:45:10;;;;;;;14.40;4.38;;;7.00;99.90;;;;;;5052181;28;20044;-80
2022/05/15 03:47:36;;;;;;;20.90;5.35;;;6.90;99.90;;;;;;5053475;28;20671;-80
2022/05/15 03:50:07;;;;;;;16.73;4.45;;;7.00;99.90;;;;;;5068483;28;20059;-80
2022/05/15 03:52:33;;;;;;;13.27;5.13;;;7.00;99.90;;;;;;5036834;28;20130;-80
2022/05/15 03:54:59;;;;;;;14.02;3.90;;;7.20;99.90;;;;;;5069544;28;20055;-80
2022/05/15 03:57:25;;;;;;;20.52;5.53;;;7.10;99.90;;;;;;5067958;28;20052;-79
2022/05/15 03:59:50;;;;;;;22.73;6.30;;;7.10;99.90;;;;;;5052368;28;20048;-80
2022/05/15 04:02:16;;;;;;;27.42;7.43;;;7.30;99.90;;;;;;5068749;28;20044;-80
2022/05/15 04:04:41;;;;;;;39.80;9.23;;;7.20;99.90;;;;;;5068668;28;20074;-80
2022/05/15 04:07:07;;;;;;;29.00;7.43;;;7.30;99.90;;;;;;5069365;28;20481;-80
2022/05/15 04:09:34;;;;;;;20.45;5.93;;;7.30;99.90;;;;;;5069843;28;20486;-80
2022/05/15 04:11:59;;;;;;;33.28;7.45;;;7.30;99.90;;;;;;5068767;28;20075;-80
2022/05/15 04:14:26;;;;;;;27.05;7.28;;;7.40;99.90;;;;;;5067753;28;20086;-80
2022/05/15 04:16:51;;;;;;;37.67;8.23;;;7.50;99.90;;;;;;5052946;28;20051;-80
2022/05/15 04:19:17;;;;;;;21.52;5.75;;;7.50;99.90;;;;;;5067466;28;20048;-80
2022/05/15 04:21:43;;;;;;;23.08;7.25;;;7.80;99.90;;;;;;5069108;28;20044;-80
2022/05/15 04:24:12;;;;;;;26.83;7.97;;;7.50;99.90;;;;;;5052521;28;20048;-80
2022/05/15 04:26:39;;;;;;;19.38;5.68;;;7.70;99.90;;;;;;5068401;28;20040;-80
2022/05/15 04:29:05;;;;;;;21.42;6.32;;;7.60;99.90;;;;;;5068744;28;20052;-80
2022/05/15 04:31:31;;;;;;;25.92;7.32;;;7.80;99.90;;;;;;5085950;28;20185;-80
2022/05/15 04:33:57;;;;;;;23.77;6.25;;;7.90;99.90;;;;;;5052014;28;20526;-80
2022/05/15 04:36:23;;;;;;;24.38;6.95;;;8.00;99.90;;;;;;5068608;28;20104;-80
2022/05/15 04:38:49;;;;;;;28.88;7.00;;;7.90;99.90;;;;;;5052121;28;20043;-79
2022/05/15 04:41:15;;;;;;;24.38;7.72;;;7.90;99.90;;;;;;5068296;28;20595;-79
2022/05/15 04:43:41;;;;;;;23.75;5.85;;;8.00;99.90;;;;;;5087187;28;20452;-79
2022/05/15 04:46:09;;;;;;;30.40;8.38;;;8.00;99.90;;;;;;5084823;28;20047;-80
2022/05/15 04:48:35;;;;;;;34.08;8.15;;;8.10;99.90;;;;;;5069431;28;20105;-80
2022/05/15 04:51:02;;;;;;;27.38;8.13;;;8.20;99.90;;;;;;5068725;28;20176;-80
2022/05/15 04:53:27;;;;;;;22.13;7.43;;;8.30;99.90;;;;;;5068608;28;20087;-80
2022/05/15 04:55:54;;;;;;;21.40;7.95;;;8.40;99.90;;;;;;5068972;28;20090;-83
2022/05/15 04:58:20;;;;;;;25.50;9.45;;;8.40;99.90;;;;;;5047917;28;20201;-82
2022/05/15 05:00:46;;;;;;;34.55;11.38;;;8.50;99.90;;;;;;5064805;28;20052;-80
2022/05/15 05:03:12;;;;;;;28.67;8.48;;;8.50;99.90;;;;;;5069484;28;20119;-80
2022/05/15 05:05:37;;;;;;;36.88;9.20;;;8.70;99.90;;;;;;5069136;28;20102;-80
2022/05/15 05:08:05;;;;;;;39.50;9.98;;;8.90;99.90;;;;;;5068950;28;20044;-81
2022/05/15 05:10:31;;;;;;;28.45;8.27;;;8.90;99.90;;;;;;5071022;28;20074;-80
2022/05/15 05:12:56;;;;;;;32.55;8.88;;;9.10;99.90;;;;;;5068589;28;20153;-81
2022/05/15 05:15:22;;;;;;;38.85;9.43;;;9.30;99.90;;;;;;5068326;28;20644;-80
2022/05/15 05:17:48;;;;;;;35.55;8.63;;;9.40;99.90;;;;;;5069241;28;20507;-80
2022/05/15 05:20:14;;;;;;;35.70;9.40;;;9.60;99.90;;;;;;5068022;28;20048;-80
2022/05/15 05:22:40;;;;;;;40.75;9.82;;;9.60;99.90;;;;;;5068457;28;20047;-80
2022/05/15 05:25:06;;;;;;;37.75;9.15;;;9.80;99.90;;;;;;5068326;28;20450;-80
2022/05/15 05:27:32;;;;;;;34.22;10.43;;;9.90;99.90;;;;;;5069393;28;20461;-79
2022/05/15 05:29:57;;;;;;;33.63;8.25;;;10.10;99.90;;;;;;5068152;28;20047;-79
2022/05/15 05:32:24;;;;;;;32.97;8.38;;;10.10;99.90;;;;;;5077880;28;20116;-80
2022/05/15 05:34:50;;;;;;;33.58;7.60;;;10.20;99.90;;;;;;5091619;28;20361;-80
2022/05/15 05:37:17;;;;;;;28.20;8.50;;;10.30;99.90;;;;;;5085696;28;20067;-81
2022/05/15 05:39:44;;;;;;;32.53;7.40;;;10.50;99.90;;;;;;5080264;28;20207;-80
2022/05/15 05:42:10;;;;;;;26.98;6.95;;;10.60;99.90;;;;;;5061561;28;20076;-80
2022/05/15 05:44:36;;;;;;;31.83;7.15;;;10.70;99.90;;;;;;5076806;28;20036;-80
2022/05/15 05:47:01;;;;;;;34.47;8.10;;;10.90;99.90;;;;;;5077124;28;20137;-80
2022/05/15 05:49:27;;;;;;;40.05;8.77;;;10.90;99.90;;;;;;5076602;28;20061;-79
2022/05/15 05:51:53;;;;;;;30.33;7.57;;;11.00;99.90;;;;;;5076077;28;20162;-79
2022/05/15 05:54:18;;;;;;;37.60;8.07;;;11.10;99.90;;;;;;5078461;28;20048;-79
2022/05/15 05:56:44;;;;;;;31.52;7.65;;;11.20;99.90;;;;;;5076786;28;20123;-80
2022/05/15 05:59:10;;;;;;;34.72;7.40;;;11.30;99.90;;;;;;5076290;28;20082;-79
2022/05/15 06:01:36;;;;;;;30.45;7.88;;;11.40;99.90;;;;;;5079283;28;20117;-81
2022/05/15 06:06:45;;;;;;;34.80;8.18;;;11.60;99.90;;;;;;5092539;28;20048;-81
2022/05/15 06:09:11;;;;;;;32.30;7.40;;;11.80;99.90;;;;;;5078644;28;20040;-80
2022/05/15 06:11:37;;;;;;;25.95;7.00;;;11.90;99.90;;;;;;5077588;28;20036;-81
2022/05/15 06:14:02;;;;;;;30.20;7.30;;;12.00;99.90;;;;;;5075499;28;20049;-81
2022/05/15 06:16:31;;;;;;;34.00;7.15;;;12.20;99.90;;;;;;5076070;28;20126;-81
2022/05/15 06:18:57;;;;;;;32.05;7.45;;;12.30;99.90;;;;;;5075376;28;20483;-81
2022/05/15 06:21:23;;;;;;;26.85;6.72;;;12.50;99.90;;;;;;5075906;28;20399;-80
2022/05/15 06:23:49;;;;;;;35.42;7.03;;;12.60;99.90;;;;;;5079239;28;20045;-81
2022/05/15 06:26:14;;;;;;;28.90;6.38;;;12.60;99.90;;;;;;5074735;28;20519;-81
2022/05/15 06:28:40;;;;;;;31.40;6.50;;;12.70;99.90;;;;;;5078454;28;20044;-81
2022/05/15 06:31:06;;;;;;;31.02;7.00;;;12.90;99.90;;;;;;5078088;28;20040;-81
2022/05/15 06:33:32;;;;;;;32.38;7.22;;;13.00;99.90;;;;;;5078334;28;20135;-80
2022/05/15 06:35:58;;;;;;;29.60;6.10;;;13.10;99.90;;;;;;5075092;28;20136;-81
2022/05/15 06:38:25;;;;;;;30.25;6.30;;;13.10;99.90;;;;;;5075936;28;20052;-81
2022/05/15 06:40:52;;;;;;;24.95;5.72;;;13.30;99.90;;;;;;5077780;28;20064;-81
2022/05/15 06:43:17;;;;;;;31.38;6.88;;;13.40;99.90;;;;;;5074655;28;20855;-81
2022/05/15 06:45:43;;;;;;;32.40;6.05;;;13.60;99.90;;;;;;5077132;28;20035;-80
2022/05/15 06:48:09;;;;;;;21.80;5.63;;;13.70;99.90;;;;;;5076306;28;20058;-81
2022/05/15 06:50:35;;;;;;;24.02;5.68;;;13.80;99.90;;;;;;5074777;28;20044;-80
2022/05/15 06:53:02;;;;;;;28.83;5.45;;;13.90;99.90;;;;;;5075380;28;20044;-81
2022/05/15 06:55:28;;;;;;;32.50;6.22;;;14.00;99.90;;;;;;5076722;28;20098;-81
2022/05/15 06:57:54;;;;;;;28.10;7.10;;;14.00;99.90;;;;;;5071313;28;20048;-81
2022/05/15 07:00:23;;;;;;;33.90;6.13;;;14.10;99.90;;;;;;5065457;28;20048;-83
2022/05/15 07:02:49;;;;;;;27.58;5.75;;;14.20;99.90;;;;;;5066050;28;20052;-80
2022/05/15 07:05:23;;;;;;;28.05;6.30;;;14.30;99.90;;;;;;5065847;28;20049;-81
2022/05/15 07:07:51;;;;;;;26.15;5.57;;;14.40;99.90;;;;;;5062454;28;20040;-80
2022/05/15 07:10:17;;;;;;;24.38;5.57;;;14.50;99.90;;;;;;5046558;28;20097;-81
2022/05/15 07:12:43;;;;;;;25.45;5.35;;;14.60;99.90;;;;;;5045964;28;20052;-80
2022/05/15 07:15:09;;;;;;;23.58;5.00;;;14.70;99.90;;;;;;5045385;28;20040;-81
2022/05/15 07:17:35;;;;;;;31.48;5.60;;;14.70;99.90;;;;;;5068310;28;20055;-81
2022/05/15 07:20:00;;;;;;;24.88;5.00;;;14.80;99.90;;;;;;5065843;28;20056;-81
2022/05/15 07:22:26;;;;;;;23.00;5.38;;;14.90;99.90;;;;;;5068027;28;20167;-80
2022/05/15 07:24:52;;;;;;;23.27;5.72;;;15.00;99.90;;;;;;5066370;28;20153;-81
2022/05/15 07:27:17;;;;;;;27.35;5.43;;;15.20;99.90;;;;;;5066365;28;20178;-81
2022/05/15 07:29:43;;;;;;;31.67;5.50;;;15.30;99.90;;;;;;5065147;28;20476;-81
2022/05/15 07:32:10;;;;;;;24.38;4.57;;;15.50;99.90;;;;;;5064561;28;20037;-85
2022/05/15 07:34:40;;;;;;;24.95;4.85;;;15.50;99.90;;;;;;5064906;28;20057;-81
2022/05/15 07:37:06;;;;;;;30.88;5.50;;;15.60;99.90;;;;;;5065462;28;20081;-81
2022/05/15 07:39:32;;;;;;;29.40;5.05;;;15.70;99.90;;;;;;5066501;28;20106;-81
2022/05/15 07:41:58;;;;;;;21.75;4.38;;;15.80;99.90;;;;;;5047431;28;20079;-80
2022/05/15 07:44:25;;;;;;;20.40;4.53;;;15.80;99.90;;;;;;5064264;28;20082;-80
2022/05/15 07:46:51;;;;;;;21.63;4.85;;;15.90;99.90;;;;;;5066868;28;20474;-81
2022/05/15 07:49:17;;;;;;;20.77;5.07;;;16.00;99.90;;;;;;5063085;28;20128;-81
2022/05/15 07:51:46;;;;;;;21.27;4.38;;;16.10;99.90;;;;;;5065089;28;20055;-81
2022/05/15 07:54:16;;;;;;;18.75;4.70;;;16.20;99.90;;;;;;5063830;28;20048;-80
2022/05/15 07:56:42;;;;;;;16.52;4.38;;;16.30;99.90;;;;;;5064138;28;20136;-80
2022/05/15 07:59:08;;;;;;;29.58;5.53;;;16.30;99.90;;;;;;5084737;28;20051;-81
2022/05/15 08:01:34;;;;;;;18.73;4.70;;;16.40;99.90;;;;;;5077209;28;20483;-80
2022/05/15 08:04:00;;;;;;;22.48;3.85;;;16.40;99.90;;;;;;5073891;28;20044;-82
2022/05/15 08:09:11;;;;;;;15.73;3.97;;;16.50;99.90;;;;;;5080018;28;20052;-82
2022/05/15 08:11:37;;;;;;;16.50;4.45;;;16.70;99.90;;;;;;5076076;28;20051;-82
2022/05/15 08:14:05;;;;;;;22.65;4.95;;;16.80;99.90;;;;;;5075598;28;20570;-81
2022/05/15 08:16:32;;;;;;;20.50;4.50;;;16.90;99.90;;;;;;5065373;28;20078;-81
2022/05/15 08:24:45;;;;;;;;;;;17.10;99.90;;;;;;5106578;28;20136;-83
2022/05/15 08:27:11;;;;;;;24.20;4.00;;;17.20;99.90;;;;;;5105734;28;19991;-83
2022/05/15 08:29:38;;;;;;;21.90;4.63;;;17.30;99.90;;;;;;5099218;28;20131;-83
2022/05/15 08:32:06;;;;;;;21.10;4.07;;;17.40;99.90;;;;;;5085638;28;20062;-83
2022/05/15 08:34:32;;;;;;;14.68;4.28;;;17.40;99.90;;;;;;5098828;28;20084;-82
2022/05/15 08:37:00;;;;;;;21.10;4.80;;;17.50;99.90;;;;;;5106831;27;20058;-82
2022/05/15 08:39:28;;;;;;;15.43;3.58;;;17.60;99.90;;;;;;5103953;28;20097;-83
2022/05/15 08:42:12;;;;;;;21.27;3.92;;;17.70;99.90;;;;;;5099507;27;20055;-82
2022/05/15 08:44:44;;;;;;;39.97;4.63;;;17.70;99.90;;;;;;5101135;27;20048;-83
2022/05/15 08:47:31;;;;;;;16.67;4.65;;;17.80;99.90;;;;;;5099217;28;20051;-82
2022/05/15 08:50:02;;;;;;;57.70;6.20;;;18.00;99.90;;;;;;5097201;27;20046;-82
2022/05/15 08:52:46;;;;;;;13.52;3.88;;;18.00;99.90;;;;;;5113288;27;20043;-84
2022/05/15 08:55:34;;;;;;;23.58;4.85;;;18.10;99.90;;;;;;5094095;27;20679;-84
2022/05/15 08:58:04;;;;;;;19.00;4.25;;;18.20;99.90;;;;;;5081331;28;20071;-89
2022/05/15 09:00:35;;;;;;;15.75;3.70;;;18.20;99.90;;;;;;5080718;27;20100;-87
2022/05/15 09:03:18;;;;;;;15.32;4.00;;;18.20;99.90;;;;;;5074831;27;20043;-84
2022/05/15 09:05:54;;;;;;;;;;;18.40;99.90;;;;;;5111888;27;20051;-83
2022/05/15 09:08:41;;;;;;;18.33;4.07;;;18.40;99.90;;;;;;5108832;27;20001;-84
2022/05/15 09:11:09;;;;;;;16.05;3.75;;;18.60;99.90;;;;;;5090416;27;20045;-82
2022/05/15 09:13:41;;;;;;;17.23;3.47;;;18.70;99.90;;;;;;5077272;27;20047;-83
2022/05/15 09:16:17;;;;;;;16.15;3.60;;;18.80;99.90;;;;;;5083349;27;20039;-83
2022/05/15 09:18:43;;;;;;;20.13;3.88;;;18.90;99.90;;;;;;5107028;27;20041;-83
2022/05/15 09:21:12;;;;;;;16.05;3.50;;;19.00;99.90;;;;;;5104473;27;20040;-84
2022/05/15 09:23:42;;;;;;;17.83;3.67;;;19.00;99.90;;;;;;5077797;28;20051;-83
2022/05/15 09:26:15;;;;;;;13.23;2.88;;;19.10;99.90;;;;;;5077729;27;20036;-83
2022/05/15 09:28:45;;;;;;;15.32;3.58;;;19.10;99.90;;;;;;5085490;27;20047;-84
2022/05/15 09:31:26;;;;;;;20.65;3.90;;;19.10;99.90;;;;;;5100460;28;20104;-83
2022/05/15 09:34:05;;;;;;;17.73;3.97;;;19.20;99.90;;;;;;5074344;27;20043;-84
2022/05/15 09:36:42;;;;;;;21.85;4.28;;;19.20;99.90;;;;;;5096274;27;20096;-84
2022/05/15 09:39:23;;;;;;;16.95;3.65;;;19.20;99.90;;;;;;5085569;28;20379;-84
2022/05/15 09:44:48;;;;;;;18.02;3.83;;;19.30;99.90;;;;;;5071564;28;20067;-84
2022/05/15 09:47:24;;;;;;;15.27;3.60;;;19.40;99.90;;;;;;5073630;27;20047;-83
2022/05/15 09:49:50;;;;;;;10.95;3.05;;;19.50;99.90;;;;;;5077525;27;20078;-84
2022/05/15 09:52:26;;;;;;;15.40;3.25;;;19.60;99.90;;;;;;5095140;27;20081;-83
2022/05/15 09:55:09;;;;;;;21.27;4.07;;;19.70;99.90;;;;;;5058293;28;20074;-83
2022/05/15 09:57:35;;;;;;;28.30;4.07;;;19.80;99.90;;;;;;5083631;28;20089;-82
2022/05/15 10:00:07;;;;;;;20.50;3.95;;;19.80;99.90;;;;;;5086387;27;20122;-83
2022/05/15 10:02:40;;;;;;;16.35;3.72;;;19.80;99.90;;;;;;5111625;27;20123;-82
2022/05/15 10:05:16;;;;;;;15.25;3.15;;;19.80;99.90;;;;;;5094351;27;20051;-83
2022/05/15 10:08:00;;;;;;;23.98;4.07;;;19.90;99.90;;;;;;5095233;27;20056;-82
2022/05/15 10:10:34;;;;;;;14.65;3.80;;;19.90;99.90;;;;;;5102153;28;20052;-83
2022/05/15 10:13:12;;;;;;;25.08;3.92;;;20.00;99.90;;;;;;5075366;28;20040;-83
2022/05/15 10:15:43;;;;;;;22.52;3.72;;;20.00;99.90;;;;;;5092688;28;20052;-84
2022/05/15 10:18:15;;;;;;;18.90;3.78;;;20.00;99.90;;;;;;5073390;28;20542;-83
2022/05/15 10:20:44;;;;;;;15.85;3.38;;;20.10;99.90;;;;;;5074886;28;20039;-83
2022/05/15 10:23:13;;;;;;;16.50;3.65;;;20.20;99.90;;;;;;5091309;28;20061;-83
2022/05/15 10:25:48;;;;;;;17.95;4.13;;;20.30;99.90;;;;;;5074408;28;20082;-83
2022/05/15 10:28:42;;;;;;;19.02;3.53;;;20.30;99.90;;;;;;5074070;28;20035;-85
2022/05/15 10:31:16;;;;;;;15.77;3.67;;;20.30;99.90;;;;;;5073735;28;20050;-84
2022/05/15 10:33:46;;;;;;;33.45;4.50;;;20.30;99.90;;;;;;5091486;28;20070;-83
2022/05/15 10:36:26;;;;;;;15.95;4.00;;;20.40;99.90;;;;;;5090071;28;20136;-84
2022/05/15 10:39:20;;;;;;;16.27;3.67;;;20.40;99.90;;;;;;5090235;28;20203;-84
2022/05/15 10:42:00;;;;;;;20.63;3.58;;;20.40;99.90;;;;;;5091489;28;20094;-84
2022/05/15 10:44:39;;;;;;;14.25;3.47;;;20.50;99.90;;;;;;5095618;27;20508;-84
2022/05/15 10:47:11;;;;;;;15.30;3.45;;;20.60;99.90;;;;;;5083345;28;20051;-85
2022/05/15 10:49:43;;;;;;;21.42;4.28;;;20.70;99.90;;;;;;5109043;27;20062;-84
2022/05/15 10:52:27;;;;;;;16.92;3.67;;;20.80;99.90;;;;;;5093376;27;20209;-84
2022/05/15 10:58:03;;;;;;;14.10;3.63;;;20.90;99.90;;;;;;5074908;27;20390;-83
2022/05/15 11:00:33;;;;;;;14.15;2.70;;;20.90;99.90;;;;;;5107286;27;20043;-82
2022/05/15 11:03:12;;;;;;;15.52;3.35;;;20.90;99.90;;;;;;5109040;27;20055;-83
2022/05/15 11:05:44;;;;;;;15.00;3.40;;;21.00;98.00;;;;;;5106701;27;20058;-82
2022/05/15 11:08:29;;;;;;;11.83;2.80;;;21.00;99.90;;;;;;5107131;27;20050;-83
2022/05/15 11:11:12;;;;;;;13.20;2.90;;;21.10;99.20;;;;;;5108923;27;20069;-82
2022/05/15 11:13:58;;;;;;;15.70;2.97;;;21.10;99.90;;;;;;5089915;27;20129;-83
2022/05/15 11:16:29;;;;;;;16.58;4.07;;;21.20;96.60;;;;;;5090605;27;20064;-83
2022/05/15 11:19:11;;;;;;;14.10;2.75;;;21.20;98.90;;;;;;5091447;27;20054;-82
2022/05/15 11:21:47;;;;;;;10.73;3.03;;;21.20;98.90;;;;;;5073622;28;20093;-84
2022/05/15 11:24:31;;;;;;;11.27;2.72;;;21.20;97.70;;;;;;5067668;28;20048;-84
2022/05/15 11:27:05;;;;;;;10.80;2.70;;;21.20;96.70;;;;;;5050981;28;20050;-84
2022/05/15 11:29:35;;;;;;;14.95;3.00;;;21.20;99.20;;;;;;5050655;28;20086;-86
2022/05/15 11:32:01;;;;;;;12.52;2.53;;;21.30;99.80;;;;;;5065412;28;20105;-86
2022/05/15 11:35:05;;;;;;;11.55;2.60;;;21.30;99.70;;;;;;5072927;28;20043;-86
2022/05/15 11:37:56;;;;;;;12.85;2.80;;;21.40;95.50;;;;;;5091535;28;20039;-85
2022/05/15 11:40:32;;;;;;;12.38;3.03;;;21.40;96.20;;;;;;5072766;28;20066;-85
2022/05/15 11:42:58;;;;;;;12.80;3.13;;;21.40;93.00;;;;;;5072686;28;20085;-83
2022/05/15 11:45:28;;;;;;;15.38;3.38;;;21.40;93.10;;;;;;5075630;27;20184;-88
2022/05/15 11:48:01;;;;;;;9.32;2.53;;;21.50;93.90;;;;;;5082866;27;20039;-87
2022/05/15 11:50:35;;;;;;;11.60;2.63;;;21.60;93.00;;;;;;5107261;27;20143;-87
2022/05/15 11:53:05;;;;;;;10.13;2.65;;;21.70;92.80;;;;;;5086903;28;20055;-87
2022/05/15 11:55:45;;;;;;;16.23;2.92;;;21.80;88.10;;;;;;5094733;28;20120;-86
2022/05/15 11:58:27;;;;;;;15.35;2.92;;;21.90;85.80;;;;;;5083398;27;20059;-87
2022/05/15 12:01:06;;;;;;;13.05;2.67;;;21.90;84.50;;;;;;5109789;28;20100;-85
2022/05/15 12:03:34;;;;;;;12.63;2.88;;;21.90;86.50;;;;;;5089251;28;20035;-85
2022/05/15 12:06:05;;;;;;;10.32;2.65;;;22.00;85.50;;;;;;5089424;28;20043;-86
2022/05/15 12:08:35;;;;;;;9.85;2.53;;;22.00;86.40;;;;;;5072384;28;20047;-86
2022/05/15 12:11:29;;;;;;;14.27;2.47;;;21.90;82.60;;;;;;5089411;28;20072;-87
2022/05/15 12:13:55;;;;;;;9.13;2.22;;;21.70;82.30;;;;;;5072362;28;20043;-87
2022/05/15 12:16:26;;;;;;;14.18;2.80;;;21.60;85.50;;;;;;5088750;28;20192;-86
2022/05/15 12:19:01;;;;;;;10.40;2.23;;;21.70;90.00;;;;;;5073058;28;20479;-83
2022/05/15 12:21:35;;;;;;;14.43;2.90;;;21.80;83.60;;;;;;5072546;28;20040;-84
2022/05/15 12:26:57;;;;;;;12.95;2.40;;;22.10;84.70;;;;;;5089798;28;20444;-85
2022/05/15 12:29:32;;;;;;;12.00;2.47;;;22.30;77.00;;;;;;5088806;28;20061;-85
2022/05/15 12:31:59;;;;;;;11.48;2.50;;;22.40;77.20;;;;;;5090078;28;20120;-85
2022/05/15 12:34:32;;;;;;;13.40;2.55;;;22.40;78.80;;;;;;5071826;28;20492;-85
2022/05/15 12:37:01;;;;;;;11.40;2.25;;;22.40;76.70;;;;;;5074246;28;20126;-86
2022/05/15 12:39:33;;;;;;;12.05;2.35;;;22.40;74.90;;;;;;5071849;28;20474;-85
2022/05/15 12:42:06;;;;;;;10.50;2.42;;;22.50;73.60;;;;;;5075864;28;20043;-86
2022/05/15 12:44:36;;;;;;;13.68;2.25;;;22.60;74.60;;;;;;5093679;28;20035;-86
2022/05/15 12:47:05;;;;;;;10.68;2.30;;;22.70;73.70;;;;;;5064536;28;20044;-86
2022/05/15 12:49:39;;;;;;;10.85;2.60;;;22.70;75.60;;;;;;5079681;28;20056;-86
2022/05/15 12:52:15;;;;;;;11.38;2.55;;;22.70;73.80;;;;;;5092715;28;20047;-87
2022/05/15 12:54:44;;;;;;;12.30;2.95;;;22.80;72.40;;;;;;5080099;28;20355;-86
2022/05/15 12:57:15;;;;;;;9.75;2.80;;;22.70;71.90;;;;;;5076938;28;20043;-87
2022/05/15 12:59:46;;;;;;;9.93;2.38;;;22.60;70.70;;;;;;5080601;28;20155;-86
2022/05/15 13:02:19;;;;;;;14.52;2.45;;;22.50;70.30;;;;;;5094467;28;20111;-88
2022/05/15 13:04:49;;;;;;;10.05;2.55;;;22.50;71.90;;;;;;5109463;28;20385;-87
2022/05/15 13:07:15;;;;;;;9.80;2.30;;;22.40;74.30;;;;;;5108872;28;20047;-86
2022/05/15 13:09:41;;;;;;;12.98;2.92;;;22.40;74.00;;;;;;5094376;28;20104;-87
2022/05/15 13:12:15;;;;;;;11.90;2.42;;;22.30;75.60;;;;;;5092616;28;20035;-86
2022/05/15 13:14:46;;;;;;;13.35;3.08;;;22.30;78.60;;;;;;5093438;28;20134;-86
2022/05/15 13:17:19;;;;;;;14.50;3.28;;;22.30;79.70;;;;;;5092634;28;20516;-87